createdAt,value
2022-08-29T00:00:58.865Z,12.70
2022-08-29T00:03:25.664Z,12.63
2022-08-29T00:05:53.205Z,12.59
2022-08-29T00:08:21.364Z,12.57
2022-08-29T00:10:48.027Z,12.55
2022-08-29T00:13:15.600Z,12.50
2022-08-29T00:15:45.127Z,12.52
2022-08-29T00:18:16.455Z,12.49
2022-08-29T00:20:44.329Z,12.45
2022-08-29T00:23:12.369Z,12.36
2022-08-29T00:25:39.552Z,12.35
2022-08-29T00:28:07.119Z,12.34
2022-08-29T00:30:34.664Z,12.42
2022-08-29T00:33:01.324Z,12.32
2022-08-29T00:35:35.969Z,12.26
2022-08-29T00:38:05.560Z,12.27
2022-08-29T00:40:39.567Z,12.22
2022-08-29T00:43:07.462Z,12.19
2022-08-29T00:45:34.880Z,12.20
2022-08-29T00:48:12.292Z,12.20
2022-08-29T00:50:43.093Z,12.14
2022-08-29T00:53:12.869Z,12.09
2022-08-29T00:55:40.571Z,12.02
2022-08-29T00:58:21.745Z,12.01
2022-08-29T01:00:49.319Z,11.96
2022-08-29T01:03:16.191Z,11.96
2022-08-29T01:05:43.033Z,12.08
2022-08-29T01:08:09.815Z,12.04
2022-08-29T01:10:55.053Z,12.00
2022-08-29T01:13:31.200Z,12.09
2022-08-29T01:15:58.440Z,12.15
2022-08-29T01:18:26.467Z,12.16
2022-08-29T01:21:30.565Z,12.20
2022-08-29T01:24:27.057Z,12.26
2022-08-29T01:26:57.402Z,12.27
2022-08-29T01:29:24.131Z,12.32
2022-08-29T01:31:56.906Z,12.36
2022-08-29T01:34:27.088Z,12.42
2022-08-29T01:36:56.896Z,12.43
2022-08-29T01:39:28.539Z,12.45
2022-08-29T01:41:57.076Z,12.44
2022-08-29T01:44:26.377Z,12.42
2022-08-29T01:47:02.227Z,12.40
2022-08-29T01:49:30.027Z,12.27
2022-08-29T01:51:56.990Z,12.28
2022-08-29T01:54:23.725Z,12.22
2022-08-29T01:56:52.128Z,12.18
2022-08-29T01:59:21.238Z,12.16
2022-08-29T02:01:51.275Z,12.08
2022-08-29T02:04:17.974Z,12.00
2022-08-29T02:06:45.705Z,11.99
2022-08-29T02:09:12.336Z,11.96
2022-08-29T02:11:39.964Z,11.92
2022-08-29T02:14:07.351Z,11.90
2022-08-29T02:16:36.521Z,11.89
2022-08-29T02:19:03.630Z,11.91
2022-08-29T02:21:30.752Z,11.84
2022-08-29T02:24:11.331Z,11.79
2022-08-29T02:26:46.707Z,11.75
2022-08-29T02:29:13.379Z,11.76
2022-08-29T02:31:40.420Z,11.73
2022-08-29T02:34:08.063Z,11.77
2022-08-29T02:36:35.605Z,11.78
2022-08-29T02:39:02.386Z,11.84
2022-08-29T02:41:29.073Z,11.81
2022-08-29T02:43:56.286Z,11.81
2022-08-29T02:46:22.996Z,11.86
2022-08-29T02:49:00.531Z,11.89
2022-08-29T02:51:30.977Z,11.92
2022-08-29T02:53:57.859Z,11.93
2022-08-29T02:56:24.621Z,11.98
2022-08-29T02:58:51.542Z,11.96
2022-08-29T03:01:20.470Z,12.00
2022-08-29T03:03:47.219Z,11.96
2022-08-29T03:06:14.013Z,11.83
2022-08-29T03:08:40.844Z,12.04
2022-08-29T03:11:07.933Z,11.88
2022-08-29T03:13:34.806Z,11.90
2022-08-29T03:16:02.354Z,11.97
2022-08-29T03:18:29.791Z,12.06
2022-08-29T03:20:56.533Z,12.23
2022-08-29T03:23:23.201Z,12.27
2022-08-29T03:25:50.136Z,12.39
2022-08-29T03:28:16.780Z,12.45
2022-08-29T03:30:43.447Z,12.45
2022-08-29T03:33:11.944Z,12.52
2022-08-29T03:35:39.147Z,12.55
2022-08-29T03:38:06.121Z,12.57
2022-08-29T03:40:32.973Z,12.59
2022-08-29T03:43:00.511Z,12.74
2022-08-29T03:45:27.135Z,12.85
2022-08-29T03:47:53.908Z,12.79
2022-08-29T03:50:21.401Z,12.83
2022-08-29T03:52:48.765Z,12.87
2022-08-29T03:55:16.273Z,12.92
2022-08-29T03:57:43.259Z,12.92
2022-08-29T04:00:13.713Z,13.06
2022-08-29T04:02:40.739Z,13.05
2022-08-29T04:05:08.673Z,13.10
2022-08-29T04:07:45.289Z,13.25
2022-08-29T04:10:15.489Z,13.22
2022-08-29T04:12:42.151Z,13.20
2022-08-29T04:15:09.830Z,13.47
2022-08-29T04:17:37.304Z,13.35
2022-08-29T04:20:25.085Z,13.30
2022-08-29T04:22:53.159Z,13.26
2022-08-29T04:25:23.707Z,13.29
2022-08-29T04:27:51.080Z,13.30
2022-08-29T04:30:20.331Z,13.33
2022-08-29T04:32:47.382Z,13.47
2022-08-29T04:35:16.142Z,13.51
2022-08-29T04:37:43.800Z,13.51
2022-08-29T04:40:15.426Z,13.55
2022-08-29T04:42:42.748Z,13.58
2022-08-29T04:45:12.388Z,13.64
2022-08-29T04:47:39.759Z,13.69
2022-08-29T04:50:08.763Z,13.76
2022-08-29T04:52:36.996Z,13.77
2022-08-29T04:55:04.949Z,13.76
2022-08-29T04:57:31.708Z,13.88
2022-08-29T04:59:59.872Z,13.91
2022-08-29T05:02:27.853Z,13.89
2022-08-29T05:04:56.775Z,13.97
2022-08-29T05:07:26.168Z,13.93
2022-08-29T05:09:58.774Z,13.90
2022-08-29T05:12:26.099Z,13.89
2022-08-29T05:14:53.719Z,14.03
2022-08-29T05:17:21.048Z,14.05
2022-08-29T05:19:47.995Z,14.15
2022-08-29T05:22:15.486Z,14.21
2022-08-29T05:24:42.407Z,14.22
2022-08-29T05:27:10.621Z,14.21
2022-08-29T05:29:40.280Z,14.27
2022-08-29T05:32:08.590Z,14.34
2022-08-29T05:34:36.512Z,14.40
2022-08-29T05:37:09.374Z,14.41
2022-08-29T05:39:37.343Z,14.44
2022-08-29T05:42:05.981Z,14.63
2022-08-29T05:44:35.437Z,14.80
2022-08-29T05:47:05.423Z,14.91
2022-08-29T05:49:32.046Z,14.94
2022-08-29T05:52:00.708Z,15.07
2022-08-29T05:54:29.934Z,15.13
2022-08-29T05:56:57.224Z,15.18
2022-08-29T05:59:23.853Z,15.24
2022-08-29T06:01:50.651Z,15.23
2022-08-29T06:04:17.536Z,15.20
2022-08-29T06:06:45.271Z,15.19
2022-08-29T06:09:12.785Z,15.14
2022-08-29T06:11:39.607Z,15.16
2022-08-29T06:14:06.689Z,15.11
2022-08-29T06:16:33.536Z,15.15
2022-08-29T06:19:00.731Z,15.14
2022-08-29T06:21:27.560Z,15.08
2022-08-29T06:23:54.723Z,15.16
2022-08-29T06:26:21.590Z,15.12
2022-08-29T06:28:48.398Z,15.26
2022-08-29T06:31:27.050Z,15.26
2022-08-29T06:33:55.958Z,15.20
2022-08-29T06:36:25.404Z,15.27
2022-08-29T06:38:53.128Z,15.37
2022-08-29T06:41:19.817Z,15.41
2022-08-29T06:43:46.503Z,15.53
2022-08-29T06:46:31.198Z,15.65
2022-08-29T06:48:59.722Z,15.71
2022-08-29T06:51:27.363Z,15.75
2022-08-29T06:53:54.128Z,15.75
2022-08-29T06:56:20.773Z,15.80
2022-08-29T06:58:47.791Z,15.93
2022-08-29T07:01:17.991Z,15.99
2022-08-29T07:03:45.340Z,15.97
2022-08-29T07:06:12.456Z,16.07
2022-08-29T07:08:55.283Z,16.08
2022-08-29T07:11:24.840Z,16.17
2022-08-29T07:13:51.586Z,16.22
2022-08-29T07:16:19.017Z,16.27
2022-08-29T07:18:46.757Z,16.26
2022-08-29T07:21:20.271Z,16.26
2022-08-29T07:23:48.713Z,16.36
2022-08-29T07:26:18.238Z,16.38
2022-08-29T07:28:47.416Z,16.40
2022-08-29T07:31:14.600Z,16.59
2022-08-29T07:33:41.578Z,16.78
2022-08-29T07:36:08.595Z,16.85
2022-08-29T07:38:35.680Z,16.82
2022-08-29T07:41:06.325Z,16.97
2022-08-29T07:43:33.363Z,16.96
2022-08-29T07:46:06.645Z,16.98
2022-08-29T07:48:33.393Z,16.97
2022-08-29T07:51:00.045Z,16.95
2022-08-29T07:53:26.689Z,16.92
2022-08-29T07:55:53.376Z,17.02
2022-08-29T07:58:19.998Z,17.04
2022-08-29T08:00:46.858Z,17.13
2022-08-29T08:03:14.351Z,17.04
2022-08-29T08:05:41.132Z,16.97
2022-08-29T08:08:15.258Z,17.04
2022-08-29T08:10:42.586Z,17.01
2022-08-29T08:13:09.343Z,17.02
2022-08-29T08:15:38.335Z,17.19
2022-08-29T08:18:05.685Z,17.29
2022-08-29T08:20:32.846Z,17.40
2022-08-29T08:22:59.812Z,17.39
2022-08-29T08:25:26.629Z,17.53
2022-08-29T08:27:53.925Z,17.65
2022-08-29T08:30:21.059Z,17.82
2022-08-29T08:32:52.724Z,17.99
2022-08-29T08:35:22.982Z,18.07
2022-08-29T08:37:49.849Z,18.10
2022-08-29T08:40:21.931Z,18.23
2022-08-29T08:42:50.723Z,18.34
2022-08-29T08:45:26.881Z,18.48
2022-08-29T08:48:00.626Z,18.43
2022-08-29T08:50:35.098Z,18.60
2022-08-29T08:53:17.032Z,18.66
2022-08-29T08:55:48.638Z,18.69
2022-08-29T08:58:35.432Z,18.82
2022-08-29T09:01:16.662Z,18.79
2022-08-29T09:03:48.828Z,18.91
2022-08-29T09:06:27.542Z,19.03
2022-08-29T09:09:20.899Z,19.30
2022-08-29T09:12:10.135Z,19.55
2022-08-29T09:14:48.555Z,19.66
2022-08-29T09:17:23.117Z,19.65
2022-08-29T09:19:51.001Z,19.70
2022-08-29T09:22:25.277Z,19.76
2022-08-29T09:24:59.796Z,19.81
2022-08-29T09:27:30.171Z,19.76
2022-08-29T09:30:13.818Z,19.72
2022-08-29T09:33:02.999Z,19.70
2022-08-29T09:35:44.625Z,19.81
2022-08-29T09:38:17.372Z,19.93
2022-08-29T09:40:50.101Z,19.85
2022-08-29T09:43:28.815Z,19.85
2022-08-29T09:46:08.815Z,19.77
2022-08-29T09:48:36.843Z,19.72
2022-08-29T09:51:24.490Z,19.64
2022-08-29T09:54:11.117Z,19.51
2022-08-29T09:56:40.839Z,19.36
2022-08-29T09:59:20.274Z,19.23
2022-08-29T10:01:47.065Z,19.22
2022-08-29T10:04:14.314Z,19.11
2022-08-29T10:06:45.389Z,18.98
2022-08-29T10:09:28.490Z,19.00
2022-08-29T10:12:01.514Z,18.97
2022-08-29T10:14:38.797Z,18.98
2022-08-29T10:17:30.078Z,19.08
2022-08-29T10:19:56.933Z,19.10
2022-08-29T10:22:32.446Z,19.31
2022-08-29T10:25:09.590Z,19.52
2022-08-29T10:27:57.656Z,19.90
2022-08-29T10:30:28.704Z,19.99
2022-08-29T10:33:33.587Z,20.03
2022-08-29T10:36:12.455Z,19.64
2022-08-29T10:38:46.807Z,19.76
2022-08-29T10:41:32.477Z,19.84
2022-08-29T10:44:23.325Z,19.99
2022-08-29T10:47:00.688Z,20.01
2022-08-29T10:49:52.093Z,20.03
2022-08-29T10:52:27.750Z,20.11
2022-08-29T10:55:03.920Z,20.14
2022-08-29T10:58:03.674Z,20.30
2022-08-29T11:00:42.428Z,20.38
2022-08-29T11:03:22.947Z,20.43
2022-08-29T11:05:55.394Z,20.41
2022-08-29T11:08:31.927Z,20.38
2022-08-29T11:10:58.672Z,20.31
2022-08-29T11:13:36.447Z,20.23
2022-08-29T11:16:29.680Z,20.15
2022-08-29T11:19:22.638Z,20.16
2022-08-29T11:21:55.540Z,20.12
2022-08-29T11:24:28.152Z,19.99
2022-08-29T11:27:06.004Z,20.44
2022-08-29T11:29:41.504Z,20.77
2022-08-29T11:32:45.569Z,20.85
2022-08-29T11:35:22.878Z,20.83
2022-08-29T11:38:11.253Z,20.90
2022-08-29T11:43:50.599Z,20.93
2022-08-29T11:46:38.174Z,21.33
2022-08-29T11:49:26.366Z,21.68
2022-08-29T11:51:55.908Z,22.05
2022-08-29T11:54:26.201Z,22.01
2022-08-29T11:56:58.646Z,21.84
2022-08-29T11:59:43.940Z,21.75
2022-08-29T12:02:16.190Z,21.62
2022-08-29T12:04:59.749Z,21.48
2022-08-29T12:07:36.009Z,21.40
2022-08-29T12:10:06.620Z,21.34
2022-08-29T12:12:44.046Z,21.34
2022-08-29T12:15:33.727Z,21.24
2022-08-29T12:18:03.903Z,21.33
2022-08-29T12:20:30.631Z,21.23
2022-08-29T12:23:03.806Z,21.19
2022-08-29T12:25:43.295Z,21.11
2022-08-29T12:28:16.086Z,20.92
2022-08-29T12:30:49.913Z,20.97
2022-08-29T12:33:38.194Z,21.14
2022-08-29T12:36:37.978Z,21.75
2022-08-29T12:39:29.101Z,22.29
2022-08-29T12:42:11.913Z,22.63
2022-08-29T12:44:41.362Z,22.67
2022-08-29T12:47:14.491Z,22.62
2022-08-29T12:49:50.839Z,22.36
2022-08-29T12:52:26.968Z,22.18
2022-08-29T12:54:56.569Z,21.93
2022-08-29T12:57:36.866Z,21.75
2022-08-29T13:00:10.457Z,21.71
2022-08-29T13:02:38.334Z,21.74
2022-08-29T13:05:23.428Z,21.90
2022-08-29T13:07:59.772Z,22.04
2022-08-29T13:10:28.397Z,22.22
2022-08-29T13:13:10.743Z,22.27
2022-08-29T13:15:37.834Z,22.53
2022-08-29T13:18:05.131Z,22.74
2022-08-29T13:20:37.944Z,23.15
2022-08-29T13:23:21.655Z,23.47
2022-08-29T13:26:06.783Z,23.62
2022-08-29T13:28:56.448Z,23.69
2022-08-29T13:31:38.144Z,23.77
2022-08-29T13:34:15.872Z,23.89
2022-08-29T13:36:50.688Z,23.99
2022-08-29T13:39:17.299Z,24.05
2022-08-29T13:41:46.687Z,24.03
2022-08-29T13:44:22.554Z,24.06
2022-08-29T13:46:51.517Z,24.00
2022-08-29T13:49:23.525Z,23.98
2022-08-29T13:51:50.321Z,23.73
2022-08-29T13:54:17.001Z,23.40
2022-08-29T13:56:46.451Z,23.32
2022-08-29T13:59:21.467Z,23.16
2022-08-29T14:02:18.321Z,23.11
2022-08-29T14:04:40.423Z,22.92
2022-08-29T14:07:15.510Z,22.73
2022-08-29T14:09:44.419Z,22.33
2022-08-29T14:12:12.598Z,22.21
2022-08-29T14:14:39.277Z,22.02
2022-08-29T14:17:06.166Z,22.00
2022-08-29T14:22:00.593Z,21.64
2022-08-29T14:24:29.802Z,21.85
2022-08-29T14:27:01.617Z,22.17
2022-08-29T14:29:33.310Z,22.52
2022-08-29T14:32:03.317Z,22.66
2022-08-29T14:34:32.435Z,22.67
2022-08-29T14:37:00.735Z,22.40
2022-08-29T14:39:27.954Z,22.19
2022-08-29T14:41:54.880Z,22.08
2022-08-29T14:44:24.378Z,21.63
2022-08-29T14:46:51.705Z,21.58
2022-08-29T14:49:19.147Z,21.83
2022-08-29T14:51:45.942Z,21.99
2022-08-29T14:54:12.974Z,22.13
2022-08-29T14:56:49.923Z,22.38
2022-08-29T14:59:18.888Z,22.59
2022-08-29T15:01:49.946Z,22.73
2022-08-29T15:04:21.853Z,22.68
2022-08-29T15:07:08.860Z,22.38
2022-08-29T15:09:35.505Z,22.32
2022-08-29T15:12:02.969Z,22.29
2022-08-29T15:14:29.849Z,22.27
2022-08-29T15:16:56.462Z,22.24
2022-08-29T15:22:10.224Z,22.11
2022-08-29T15:24:39.460Z,22.10
2022-08-29T15:27:06.594Z,22.08
2022-08-29T15:29:34.243Z,22.10
2022-08-29T15:32:01.095Z,22.14
2022-08-29T15:34:29.222Z,22.21
2022-08-29T15:36:57.038Z,22.13
2022-08-29T15:39:25.421Z,22.29
2022-08-29T15:41:52.090Z,22.10
2022-08-29T15:44:18.871Z,22.09
2022-08-29T15:46:51.036Z,22.11
2022-08-29T15:49:19.347Z,21.88
2022-08-29T15:51:46.706Z,21.74
2022-08-29T15:54:14.214Z,21.70
2022-08-29T15:56:40.983Z,21.71
2022-08-29T15:59:09.611Z,21.90
2022-08-29T16:01:42.274Z,21.92
2022-08-29T16:04:10.058Z,21.86
2022-08-29T16:06:37.614Z,21.95
2022-08-29T16:09:15.097Z,21.80
2022-08-29T16:11:47.441Z,21.73
2022-08-29T16:17:02.093Z,21.66
2022-08-29T16:19:29.286Z,21.64
2022-08-29T16:22:00.058Z,21.55
2022-08-29T16:24:28.586Z,21.37
2022-08-29T16:26:55.509Z,21.32
2022-08-29T16:29:25.475Z,21.35
2022-08-29T16:31:56.052Z,21.17
2022-08-29T16:34:26.099Z,21.16
2022-08-29T16:36:56.517Z,20.93
2022-08-29T16:39:23.214Z,20.93
2022-08-29T16:41:50.135Z,20.81
2022-08-29T16:44:16.817Z,20.71
2022-08-29T16:46:43.587Z,20.66
2022-08-29T16:49:10.262Z,20.48
2022-08-29T16:51:37.337Z,20.39
2022-08-29T16:54:04.132Z,20.45
2022-08-29T16:56:32.810Z,20.60
2022-08-29T16:59:04.080Z,20.53
2022-08-29T17:01:37.554Z,20.43
2022-08-29T17:04:07.903Z,20.32
2022-08-29T17:06:34.908Z,20.16
2022-08-29T17:09:05.281Z,20.09
2022-08-29T17:11:35.106Z,20.05
2022-08-29T17:14:01.770Z,19.94
2022-08-29T17:16:28.448Z,19.93
2022-08-29T17:18:55.225Z,19.62
2022-08-29T17:21:21.825Z,19.63
2022-08-29T17:23:48.835Z,19.63
2022-08-29T17:26:17.287Z,19.34
2022-08-29T17:28:45.823Z,19.37
2022-08-29T17:31:13.284Z,19.32
2022-08-29T17:33:40.661Z,19.03
2022-08-29T17:36:08.807Z,19.14
2022-08-29T17:38:35.600Z,18.95
2022-08-29T17:41:05.194Z,18.81
2022-08-29T17:43:42.880Z,18.55
2022-08-29T17:46:09.805Z,18.70
2022-08-29T17:48:36.597Z,18.57
2022-08-29T17:51:04.057Z,18.48
2022-08-29T17:53:32.448Z,18.41
2022-08-29T17:56:09.516Z,18.28
2022-08-29T17:58:36.161Z,18.19
2022-08-29T18:01:02.947Z,18.15
2022-08-29T18:03:29.653Z,18.07
2022-08-29T18:05:56.278Z,17.97
2022-08-29T18:08:22.935Z,17.81
2022-08-29T18:10:49.664Z,17.83
2022-08-29T18:13:19.815Z,17.62
2022-08-29T18:15:48.371Z,17.62
2022-08-29T18:18:20.067Z,17.55
2022-08-29T18:20:47.072Z,17.38
2022-08-29T18:23:13.744Z,17.43
2022-08-29T18:25:40.440Z,17.34
2022-08-29T18:28:08.351Z,17.36
2022-08-29T18:30:35.533Z,17.25
2022-08-29T18:33:02.236Z,17.21
2022-08-29T18:35:29.089Z,17.16
2022-08-29T18:37:55.842Z,17.06
2022-08-29T18:40:22.686Z,16.98
2022-08-29T18:42:49.544Z,17.05
2022-08-29T18:45:16.379Z,16.82
2022-08-29T18:47:43.187Z,16.74
2022-08-29T18:50:29.090Z,16.81
2022-08-29T18:52:56.651Z,16.75
2022-08-29T18:55:23.877Z,16.67
2022-08-29T18:57:52.173Z,16.73
2022-08-29T19:00:19.247Z,16.60
2022-08-29T19:02:46.070Z,16.51
2022-08-29T19:05:13.146Z,16.43
2022-08-29T19:07:39.842Z,16.48
2022-08-29T19:10:06.863Z,16.53
2022-08-29T19:12:33.832Z,16.46
2022-08-29T19:15:00.479Z,16.45
2022-08-29T19:17:27.370Z,16.27
2022-08-29T19:20:12.887Z,16.20
2022-08-29T19:22:39.542Z,16.12
2022-08-29T19:25:09.083Z,16.19
2022-08-29T19:27:43.710Z,15.98
2022-08-29T19:30:12.376Z,16.00
2022-08-29T19:32:39.319Z,15.91
2022-08-29T19:35:06.914Z,15.88
2022-08-29T19:37:33.694Z,15.86
2022-08-29T19:40:01.381Z,15.87
2022-08-29T19:42:28.372Z,15.76
2022-08-29T19:44:56.468Z,15.71
2022-08-29T19:47:23.967Z,15.67
2022-08-29T19:49:51.667Z,15.64
2022-08-29T19:52:18.321Z,15.68
2022-08-29T19:54:45.022Z,15.53
2022-08-29T19:57:14.662Z,15.47
2022-08-29T19:59:42.244Z,15.40
2022-08-29T20:02:10.881Z,15.32
2022-08-29T20:04:38.335Z,15.27
2022-08-29T20:07:08.276Z,15.29
2022-08-29T20:09:35.167Z,15.23
2022-08-29T20:12:06.507Z,15.16
2022-08-29T20:14:34.461Z,15.23
2022-08-29T20:17:07.495Z,15.21
2022-08-29T20:19:37.513Z,15.13
2022-08-29T20:22:10.398Z,15.14
2022-08-29T20:24:37.481Z,15.11
2022-08-29T20:27:05.511Z,14.96
2022-08-29T20:29:32.225Z,14.97
2022-08-29T20:32:00.427Z,14.95
2022-08-29T20:34:29.713Z,14.91
2022-08-29T20:37:14.151Z,14.87
2022-08-29T20:39:42.131Z,14.83
2022-08-29T20:42:09.397Z,14.85
2022-08-29T20:44:37.967Z,14.84
2022-08-29T20:47:09.126Z,14.82
2022-08-29T20:49:40.882Z,14.78
2022-08-29T20:52:12.786Z,14.81
2022-08-29T20:54:41.595Z,14.95
2022-08-29T20:57:14.902Z,14.95
2022-08-29T20:59:42.764Z,14.96
2022-08-29T21:02:10.049Z,14.95
2022-08-29T21:04:56.121Z,15.00
2022-08-29T21:07:22.794Z,15.10
2022-08-29T21:09:54.105Z,15.18
2022-08-29T21:12:21.080Z,15.19
2022-08-29T21:14:48.192Z,15.19
2022-08-29T21:17:15.941Z,15.20
2022-08-29T21:19:42.704Z,15.20
2022-08-29T21:22:12.243Z,15.15
2022-08-29T21:24:39.460Z,15.17
2022-08-29T21:27:06.151Z,15.17
2022-08-29T21:29:32.801Z,15.23
2022-08-29T21:31:59.559Z,15.11
2022-08-29T21:34:26.299Z,15.35
2022-08-29T21:36:53.005Z,15.28
2022-08-29T21:39:28.050Z,15.32
2022-08-29T21:41:55.490Z,15.24
2022-08-29T21:44:22.414Z,15.23
2022-08-29T21:46:49.214Z,15.27
2022-08-29T21:49:18.664Z,15.19
2022-08-29T21:51:46.531Z,15.32
2022-08-29T21:54:14.999Z,15.30
2022-08-29T21:56:42.407Z,15.37
2022-08-29T21:59:10.201Z,15.31
2022-08-29T22:01:39.022Z,15.31
2022-08-29T22:04:09.960Z,15.42
2022-08-29T22:06:39.734Z,15.43
2022-08-29T22:09:14.692Z,15.42
2022-08-29T22:11:43.003Z,15.46
2022-08-29T22:14:09.922Z,15.42
2022-08-29T22:16:37.302Z,15.45
2022-08-29T22:19:14.213Z,15.46
2022-08-29T22:21:47.908Z,15.53
2022-08-29T22:24:15.501Z,15.62
2022-08-29T22:26:43.440Z,15.59
2022-08-29T22:29:12.019Z,15.57
2022-08-29T22:31:39.118Z,15.58
2022-08-29T22:34:09.820Z,15.64
2022-08-29T22:36:36.458Z,15.60
2022-08-29T22:39:03.374Z,15.61
2022-08-29T22:41:30.050Z,15.72
2022-08-29T22:44:35.768Z,15.68
2022-08-29T22:46:44.946Z,15.64
2022-08-29T22:49:12.292Z,15.65
2022-08-29T22:51:39.038Z,15.68
2022-08-29T22:54:24.438Z,15.73
2022-08-29T22:56:52.619Z,15.84
2022-08-29T22:59:24.109Z,15.81
2022-08-29T23:01:50.959Z,15.83
2022-08-29T23:04:17.773Z,15.76
2022-08-29T23:06:44.571Z,15.75
2022-08-29T23:09:12.483Z,15.79
2022-08-29T23:11:39.790Z,15.85
2022-08-29T23:14:06.898Z,15.80
2022-08-29T23:16:34.714Z,15.74
2022-08-29T23:19:02.269Z,15.76
2022-08-29T23:21:31.056Z,15.79
2022-08-29T23:23:58.285Z,15.70
2022-08-29T23:26:25.526Z,15.69
2022-08-29T23:28:53.324Z,15.64
2022-08-29T23:31:21.654Z,15.70
2022-08-29T23:33:51.906Z,15.64
2022-08-29T23:36:19.444Z,15.63
2022-08-29T23:38:46.405Z,15.69
2022-08-29T23:41:15.407Z,15.70
2022-08-29T23:43:42.459Z,15.62
2022-08-29T23:46:09.284Z,15.64
2022-08-29T23:48:35.951Z,15.58
2022-08-29T23:51:08.064Z,15.64
2022-08-29T23:53:35.276Z,15.65
2022-08-29T23:56:06.971Z,15.56
2022-08-29T23:58:33.686Z,15.59
